< Typhoon 201216 2012 Season Typhoon 201218 >
Typhoon 201217 (JELAWAT)
General InformationTrack Information on Google MapsDetailed Wind InformationAccess Analytics MapList of All Images || NewsDisaster Info.WeblogTrackbackTyphoon FrontTwiphoonTyphoon Now!Typhoon ImaginationResourceGoogle EarthGE AnimationAtom FeedGeoJSON
Detalied Best Track (Time Zone = UTC)
Year Month Day Hour Lat. Long. Pressure (hPa) Wind (kt) Class Image Chart
2012 9 20 00 13.7 134.8 1010 0 2 Image Chart
2012 9 20 06 13.8 133.4 1006 0 2 Image Chart
2012 9 20 12 13.5 132.0 1006 0 2 Image Chart
2012 9 20 18 13.3 131.5 1002 35 3 Image Chart
2012 9 21 00 13.1 130.9 996 45 3 Image Chart
2012 9 21 06 12.5 130.4 992 45 3 Image Chart
2012 9 21 12 12.3 130.3 990 45 3 Image Chart
2012 9 21 18 11.9 130.1 990 45 3 Image Chart
2012 9 22 00 11.7 130.0 990 50 4 Image Chart
2012 9 22 06 11.7 129.8 990 50 4 Image Chart
2012 9 22 12 11.7 129.6 980 55 4 Image Chart
2012 9 22 18 11.7 129.3 975 60 4 Image Chart
2012 9 23 00 11.8 128.9 965 70 5 Image Chart
2012 9 23 06 12.1 128.9 940 85 5 Image Chart
2012 9 23 12 12.7 128.7 925 100 5 Image Chart
2012 9 23 18 13.0 128.6 925 100 5 Image Chart
2012 9 24 00 13.6 128.5 925 100 5 Image Chart
2012 9 24 06 14.2 128.2 925 100 5 Image Chart
2012 9 24 12 14.6 128.1 910 105 5 Image Chart
2012 9 24 18 15.2 127.9 905 110 5 Image Chart
2012 9 25 00 15.7 127.8 905 110 5 Image Chart
2012 9 25 06 16.4 127.5 905 110 5 Image Chart
2012 9 25 12 16.8 127.1 905 110 5 Image Chart
2012 9 25 18 17.1 126.8 905 110 5 Image Chart
2012 9 26 00 17.4 126.5 905 110 5 Image Chart
2012 9 26 06 18.0 126.1 905 110 5 Image Chart
2012 9 26 12 18.4 125.9 905 110 5 Image Chart
2012 9 26 18 19.1 125.4 915 105 5 Image Chart
2012 9 27 00 19.6 124.8 920 100 5 Image Chart
2012 9 27 06 20.2 124.4 920 100 5 Image Chart
2012 9 27 12 20.9 124.1 920 100 5 Image Chart
2012 9 27 18 21.6 123.9 920 100 5 Image Chart
2012 9 27 21 22.0 124.0 920 100 5 Image Chart
2012 9 28 00 22.4 124.1 920 100 5 Image Chart
2012 9 28 03 22.9 124.2 920 100 5 Image Chart
2012 9 28 06 23.4 124.4 925 95 5 Image Chart
2012 9 28 09 23.9 124.8 925 95 5 Image Chart
2012 9 28 12 24.2 125.1 925 90 5 Image Chart
2012 9 28 15 24.6 125.6 925 90 5 Image Chart
2012 9 28 18 25.0 126.0 930 90 5 Image Chart
2012 9 28 21 25.5 126.6 930 90 5 Image Chart
2012 9 29 00 26.0 127.2 930 90 5 Image Chart
2012 9 29 03 26.6 127.7 935 90 5 Image Chart
2012 9 29 06 26.9 128.5 935 90 5 Image Chart
2012 9 29 09 27.5 129.4 935 90 5 Image Chart
2012 9 29 12 27.9 130.3 940 90 5 Image Chart
2012 9 29 15 28.6 131.2 940 85 5 Image Chart
2012 9 29 18 29.3 132.4 945 85 5 Image Chart
2012 9 29 21 30.2 133.5 945 85 5 Image Chart
2012 9 30 00 31.5 134.2 950 80 5 Image Chart
2012 9 30 03 32.5 134.7 950 80 5 Image Chart
2012 9 30 06 33.5 135.7 965 70 5 Image Chart
2012 9 30 08 34.1 136.6 965 70 5 Image Chart
2012 9 30 09 34.4 137.0 970 70 5 Image Chart
2012 9 30 10 34.8 137.4 975 70 5 Image Chart
2012 9 30 12 35.7 138.3 980 65 5 Image Chart
2012 9 30 15 37.0 139.5 980 65 5 Image Chart
2012 9 30 18 39.1 141.0 985 55 4 Image Chart
2012 9 30 21 40.6 143.1 985 55 4 Image Chart
2012 10 1 00 41.9 144.4 990 50 4 Image Chart
2012 10 1 03 42.7 147.1 990 50 4 Image Chart
2012 10 1 06 44.0 149.0 990 45 3 Image Chart
2012 10 1 12 46.0 155.0 992 0 6 Image Chart
2012 10 1 18 47.1 160.7 992 0 6 Image Chart
2012 10 2 00 47.8 165.7 984 0 6 Image Chart
2012 10 2 06 48.0 170.7 984 0 6 Image Chart
2012 10 2 12 48.2 175.5 982 0 6 Image Chart
2012 10 2 18 48.6 179.8 982 0 6 Image Chart
2012 10 3 00 48.7 182.2 982 0 6 Image Chart
Japan Meteorological Agency Best Track Data | Correction Date : 2012-11-13
< Typhoon 201216 2012 Season Typhoon 201218 >

Help